Time;durP1;ratioP1;P1;durP2;ratioP2;P2;SDS_P1;SDS_P2;PMS_P1;PMS_P2;Temp;Humidity;BMP_temperature;BMP_pressure;BME280_temperature;BME280_humidity;BME280_pressure;Samples;Min_cycle;Max_cycle;Signal;HPM_P1;HPM_P2
2022/01/11 00:01:22;;;;;;;19.30;9.25;;;8.20;99.90;;;;;;4949666;29;20088;-94
2022/01/11 00:03:48;;;;;;;21.83;10.40;;;8.20;99.90;;;;;;4949962;29;20058;-95
2022/01/11 00:06:28;;;;;;;19.75;9.70;;;8.20;99.90;;;;;;4947340;29;20023;-92
2022/01/11 00:08:59;;;;;;;16.05;8.20;;;8.20;99.90;;;;;;4953638;29;20047;-95
2022/01/11 00:11:25;;;;;;;18.05;8.95;;;8.20;99.90;;;;;;4949018;29;20063;-94
2022/01/11 00:13:53;;;;;;;18.10;8.95;;;8.20;99.90;;;;;;4951578;29;20046;-95
2022/01/11 00:16:18;;;;;;;14.98;9.02;;;8.20;99.90;;;;;;4950466;29;20046;-93
2022/01/11 00:18:46;;;;;;;17.50;9.60;;;8.20;99.90;;;;;;4951566;29;20023;-95
2022/01/11 00:21:14;;;;;;;19.05;9.90;;;8.20;99.90;;;;;;4953057;29;20035;-94
2022/01/11 00:26:15;;;;;;;16.23;8.65;;;8.20;99.90;;;;;;4972385;29;20023;-95
2022/01/11 00:28:41;;;;;;;16.27;8.45;;;8.20;99.90;;;;;;4955350;29;20126;-95
2022/01/11 00:31:08;;;;;;;16.80;8.98;;;8.30;99.90;;;;;;4954497;29;20127;-93
2022/01/11 00:33:40;;;;;;;16.00;8.57;;;8.20;99.90;;;;;;4951420;29;20122;-94
2022/01/11 00:36:07;;;;;;;17.85;9.40;;;8.20;99.90;;;;;;4950286;29;20039;-93
2022/01/11 00:38:35;;;;;;;14.98;8.32;;;8.20;99.90;;;;;;4950921;29;20035;-94
2022/01/11 00:41:05;;;;;;;19.75;8.55;;;8.20;99.90;;;;;;4951874;28;20032;-94
2022/01/11 00:43:34;;;;;;;18.40;9.85;;;8.20;99.90;;;;;;4952176;29;20027;-94
2022/01/11 00:46:00;;;;;;;18.10;9.20;;;8.20;99.90;;;;;;4951752;29;20034;-94
2022/01/11 00:48:28;;;;;;;20.52;9.52;;;8.20;99.90;;;;;;4951723;29;20027;-95
2022/01/11 00:50:54;;;;;;;18.58;8.98;;;8.20;99.90;;;;;;4951375;29;20031;-95
2022/01/11 00:53:23;;;;;;;19.40;9.85;;;8.20;99.90;;;;;;4951497;29;20027;-95
2022/01/11 00:55:51;;;;;;;17.83;9.35;;;8.20;99.90;;;;;;4955332;28;20074;-94
2022/01/11 00:58:21;;;;;;;17.05;8.63;;;8.20;99.90;;;;;;4969321;29;20054;-92
2022/01/11 01:00:48;;;;;;;16.95;8.60;;;8.20;99.90;;;;;;4951377;29;20032;-92
2022/01/11 01:03:14;;;;;;;18.05;9.48;;;8.20;99.90;;;;;;4954616;28;20051;-91
2022/01/11 01:05:41;;;;;;;16.58;8.48;;;8.20;99.90;;;;;;4941717;29;20035;-92
2022/01/11 01:08:07;;;;;;;28.17;10.27;;;8.20;99.90;;;;;;4964550;28;20488;-93
2022/01/11 01:10:39;;;;;;;16.42;8.18;;;8.20;99.90;;;;;;4942464;28;20054;-93
2022/01/11 01:13:09;;;;;;;19.83;9.60;;;8.20;99.90;;;;;;4946991;28;20046;-93
2022/01/11 01:15:36;;;;;;;17.80;8.77;;;8.30;99.90;;;;;;4940733;29;20057;-93
2022/01/11 01:18:03;;;;;;;23.20;11.02;;;8.30;99.90;;;;;;4940617;29;20035;-94
2022/01/11 01:20:29;;;;;;;25.23;11.18;;;8.30;99.90;;;;;;4941680;29;20031;-94
2022/01/11 01:22:55;;;;;;;24.48;10.13;;;8.30;99.90;;;;;;4941358;29;20102;-92
2022/01/11 01:25:23;;;;;;;28.33;11.95;;;8.30;99.90;;;;;;4941577;29;20032;-93
2022/01/11 01:27:53;;;;;;;28.70;11.57;;;8.30;99.90;;;;;;4946231;29;20038;-94
2022/01/11 01:30:23;;;;;;;25.08;11.07;;;8.30;99.90;;;;;;4949297;29;20425;-95
2022/01/11 01:32:53;;;;;;;25.33;10.48;;;8.30;99.90;;;;;;4950534;29;20089;-94
2022/01/11 01:35:23;;;;;;;26.23;10.68;;;8.40;99.90;;;;;;4946503;29;20019;-95
2022/01/11 01:37:49;;;;;;;24.42;11.30;;;8.40;99.90;;;;;;4947608;29;20027;-94
2022/01/11 01:40:19;;;;;;;25.90;11.10;;;8.40;99.90;;;;;;4949962;29;20066;-94
2022/01/11 01:42:49;;;;;;;20.00;9.88;;;8.40;99.90;;;;;;4950444;29;20546;-94
2022/01/11 01:45:15;;;;;;;22.30;9.15;;;8.40;99.90;;;;;;4952884;29;20023;-94
2022/01/11 01:47:41;;;;;;;20.33;8.70;;;8.40;99.90;;;;;;4951281;29;20031;-94
2022/01/11 01:50:11;;;;;;;18.45;8.10;;;8.40;99.90;;;;;;4953421;29;20034;-94
2022/01/11 01:52:38;;;;;;;19.80;8.80;;;8.40;99.90;;;;;;4956103;28;20024;-95
2022/01/11 01:55:08;;;;;;;19.52;8.70;;;8.50;99.90;;;;;;4955340;29;20026;-94
2022/01/11 01:57:36;;;;;;;18.20;8.88;;;8.50;99.90;;;;;;4955811;29;20023;-93
2022/01/11 02:00:11;;;;;;;19.65;8.95;;;8.50;99.90;;;;;;4937406;29;20106;-94
2022/01/11 02:02:38;;;;;;;19.42;8.55;;;8.50;99.90;;;;;;4950893;29;20541;-93
2022/01/11 02:05:07;;;;;;;21.38;8.50;;;8.50;99.90;;;;;;4950658;29;20043;-94
2022/01/11 02:07:34;;;;;;;18.15;8.23;;;8.50;99.90;;;;;;4951569;29;20034;-93
2022/01/11 02:10:01;;;;;;;17.67;7.75;;;8.50;99.90;;;;;;4954129;29;20027;-93
2022/01/11 02:12:30;;;;;;;14.43;7.88;;;8.50;99.90;;;;;;4950969;29;20031;-94
2022/01/11 02:15:05;;;;;;;12.90;6.00;;;8.50;99.90;;;;;;4950546;29;20043;-92
2022/01/11 02:17:39;;;;;;;12.85;6.60;;;8.60;99.90;;;;;;4950620;29;20027;-94
2022/01/11 02:20:18;;;;;;;15.00;7.13;;;8.60;99.90;;;;;;4950225;29;20027;-93
2022/01/11 02:22:48;;;;;;;14.32;7.28;;;8.60;99.90;;;;;;4948258;29;20039;-93
2022/01/11 02:25:19;;;;;;;15.13;6.68;;;8.60;99.90;;;;;;4950954;29;20103;-96
2022/01/11 02:28:07;;;;;;;13.77;6.82;;;8.60;99.90;;;;;;4951612;29;20237;-94
2022/01/11 02:30:39;;;;;;;12.40;5.82;;;8.60;99.90;;;;;;4949960;29;20071;-94
2022/01/11 02:33:16;;;;;;;17.90;6.40;;;8.60;99.90;;;;;;4950165;29;20031;-94
2022/01/11 02:35:51;;;;;;;12.93;6.13;;;8.60;99.90;;;;;;4950467;29;20038;-94
2022/01/11 02:38:22;;;;;;;11.10;5.78;;;8.60;99.90;;;;;;4950149;29;20035;-94
2022/01/11 02:40:57;;;;;;;13.32;6.43;;;8.60;99.90;;;;;;4950759;29;20047;-93
2022/01/11 02:43:25;;;;;;;13.90;6.57;;;8.60;99.90;;;;;;4950947;29;20031;-94
2022/01/11 02:46:02;;;;;;;12.32;6.25;;;8.60;99.90;;;;;;4951085;29;20023;-93
2022/01/11 02:48:42;;;;;;;12.40;6.38;;;8.50;99.90;;;;;;4951370;29;20047;-94
2022/01/11 02:51:11;;;;;;;12.25;6.10;;;8.50;99.90;;;;;;4951008;29;20190;-94
2022/01/11 02:53:59;;;;;;;11.25;6.35;;;8.60;99.90;;;;;;4950716;29;20031;-94
2022/01/11 02:56:34;;;;;;;10.40;5.88;;;8.60;99.90;;;;;;4951553;29;20023;-93
2022/01/11 02:59:05;;;;;;;13.85;6.22;;;8.50;99.90;;;;;;4952100;29;20118;-94
2022/01/11 03:01:45;;;;;;;14.63;6.78;;;8.50;99.90;;;;;;4952570;29;20031;-94
2022/01/11 03:04:31;;;;;;;;;;;;;;;;;;;;;
2022/01/11 03:07:23;;;;;;;11.75;6.05;;;8.50;99.90;;;;;;4971460;29;20066;-95
2022/01/11 03:10:08;;;;;;;14.68;5.90;;;8.50;99.90;;;;;;4956507;29;20027;-93
2022/01/11 03:12:43;;;;;;;14.77;5.70;;;8.50;99.90;;;;;;4963455;29;20066;-94
2022/01/11 03:15:32;;;;;;;8.10;4.78;;;8.60;99.90;;;;;;4946265;29;20103;-92
2022/01/11 03:18:04;;;;;;;7.20;4.15;;;8.50;99.90;;;;;;4971622;29;20046;-95
2022/01/11 03:20:49;;;;;;;10.35;4.75;;;8.60;99.90;;;;;;4954522;29;20031;-94
2022/01/11 03:23:21;;;;;;;10.63;4.45;;;8.60;99.90;;;;;;4954501;29;20054;-94
2022/01/11 03:25:50;;;;;;;9.93;4.75;;;8.60;99.90;;;;;;4956523;29;20114;-95
2022/01/11 03:28:23;;;;;;;;;;;8.60;99.90;;;;;;4969678;29;20039;-94
2022/01/11 03:30:55;;;;;;;6.68;3.60;;;8.60;99.90;;;;;;4951438;29;19918;-96
2022/01/11 03:33:26;;;;;;;6.28;3.80;;;8.60;99.90;;;;;;4951065;29;20027;-94
2022/01/11 03:35:55;;;;;;;8.23;3.53;;;8.60;99.90;;;;;;4950634;29;20023;-93
2022/01/11 03:38:24;;;;;;;6.32;3.35;;;8.60;99.90;;;;;;4951326;29;20127;-94
2022/01/11 03:40:56;;;;;;;7.13;3.72;;;8.60;99.90;;;;;;4952215;29;20027;-95
2022/01/11 03:43:26;;;;;;;6.50;4.00;;;8.60;99.90;;;;;;4952792;29;20027;-95
2022/01/11 03:45:52;;;;;;;6.45;3.58;;;8.60;99.90;;;;;;4953108;29;20114;-95
2022/01/11 03:48:31;;;;;;;9.15;3.28;;;8.60;99.90;;;;;;4952693;29;20036;-94
2022/01/11 03:51:03;;;;;;;8.13;3.65;;;8.60;99.90;;;;;;4940675;29;20047;-95
2022/01/11 03:53:54;;;;;;;6.32;3.42;;;8.60;99.90;;;;;;4973497;28;20046;-96
2022/01/11 03:56:23;;;;;;;7.32;3.97;;;8.60;99.90;;;;;;4956001;29;20035;-94
2022/01/11 03:58:53;;;;;;;8.85;3.72;;;8.60;99.90;;;;;;4953230;29;20058;-95
2022/01/11 04:01:25;;;;;;;6.17;3.93;;;8.50;99.90;;;;;;4953849;29;20035;-94
2022/01/11 04:04:02;;;;;;;5.75;3.45;;;8.50;99.90;;;;;;4937334;29;20059;-94
2022/01/11 04:06:36;;;;;;;5.75;3.90;;;8.50;99.90;;;;;;4952534;29;20078;-95
2022/01/11 04:09:08;;;;;;;5.68;3.47;;;8.50;99.90;;;;;;4953171;29;20032;-94
2022/01/11 04:11:35;;;;;;;6.35;3.78;;;8.50;99.90;;;;;;4952388;29;20027;-93
2022/01/11 04:14:08;;;;;;;10.43;3.28;;;8.60;99.90;;;;;;4953143;29;20024;-93
2022/01/11 04:16:43;;;;;;;5.50;3.03;;;8.50;99.90;;;;;;4952810;29;20508;-95
2022/01/11 04:19:10;;;;;;;6.00;3.35;;;8.50;99.90;;;;;;4956518;29;20054;-96
2022/01/11 04:21:38;;;;;;;5.30;2.85;;;8.50;99.90;;;;;;4943386;29;20067;-95
2022/01/11 04:24:12;;;;;;;3.33;2.30;;;8.50;99.90;;;;;;4958729;29;20047;-94
2022/01/11 04:26:38;;;;;;;3.85;2.33;;;8.60;99.90;;;;;;4958111;29;20031;-94
2022/01/11 04:29:08;;;;;;;6.65;2.35;;;8.60;99.90;;;;;;4957680;29;20035;-96
2022/01/11 04:31:34;;;;;;;2.38;1.63;;;8.60;99.90;;;;;;4954007;29;20031;-95
2022/01/11 04:34:00;;;;;;;2.05;1.42;;;8.60;99.90;;;;;;4951549;29;20440;-94
2022/01/11 04:36:27;;;;;;;1.95;1.20;;;8.50;99.90;;;;;;4949825;29;20114;-95
2022/01/11 04:38:53;;;;;;;1.73;0.90;;;8.50;99.90;;;;;;4950169;29;20059;-93
2022/01/11 04:41:19;;;;;;;1.98;1.20;;;8.60;99.90;;;;;;4949925;29;20035;-94
2022/01/11 04:43:45;;;;;;;3.65;1.08;;;8.60;99.90;;;;;;4948964;29;20035;-94
2022/01/11 04:46:18;;;;;;;0.85;0.55;;;8.60;99.90;;;;;;4947860;29;20101;-93
2022/01/11 04:48:45;;;;;;;9.00;1.00;;;8.50;99.90;;;;;;4951360;29;20132;-95
2022/01/11 04:51:17;;;;;;;6.15;0.93;;;8.50;99.90;;;;;;4956470;29;20058;-94
2022/01/11 04:53:43;;;;;;;4.47;0.70;;;8.50;99.90;;;;;;4956864;29;20046;-95
2022/01/11 04:56:09;;;;;;;7.47;0.77;;;8.50;99.90;;;;;;4954000;29;20054;-93
2022/01/11 04:58:38;;;;;;;4.70;0.88;;;8.40;99.90;;;;;;4953892;29;20109;-95
2022/01/11 05:01:04;;;;;;;4.20;1.00;;;8.40;99.90;;;;;;4954087;29;20019;-94
2022/01/11 05:03:31;;;;;;;6.90;1.02;;;8.30;99.90;;;;;;4963056;29;20103;-94
2022/01/11 05:05:57;;;;;;;3.40;1.00;;;8.30;99.90;;;;;;4934664;29;20023;-94
2022/01/11 05:08:23;;;;;;;8.13;1.02;;;8.30;99.90;;;;;;4928067;29;20035;-93
2022/01/11 05:10:50;;;;;;;4.75;0.90;;;8.30;99.90;;;;;;4927131;29;20039;-94
2022/01/11 05:13:17;;;;;;;2.97;0.85;;;8.20;99.90;;;;;;4927410;29;20422;-95
2022/01/11 05:15:44;;;;;;;4.97;0.90;;;8.20;99.90;;;;;;4927154;29;20418;-94
2022/01/11 05:18:10;;;;;;;3.40;0.82;;;8.20;99.90;;;;;;4925779;29;20031;-94
2022/01/11 05:20:38;;;;;;;3.15;1.00;;;8.20;99.90;;;;;;4927802;29;20394;-95
2022/01/11 05:23:05;;;;;;;3.58;0.77;;;8.10;99.90;;;;;;4930020;29;20051;-94
2022/01/11 05:25:31;;;;;;;4.63;0.90;;;8.10;99.90;;;;;;4928708;29;20032;-94
2022/01/11 05:27:59;;;;;;;3.30;0.65;;;8.10;99.90;;;;;;4926535;29;20034;-95
2022/01/11 05:30:25;;;;;;;6.90;1.10;;;8.10;99.90;;;;;;4925904;29;20111;-94
2022/01/11 05:32:52;;;;;;;5.07;0.77;;;8.00;99.90;;;;;;4925381;29;20035;-93
2022/01/11 05:35:19;;;;;;;8.95;1.38;;;8.00;99.90;;;;;;4932375;29;20024;-95
2022/01/11 05:37:46;;;;;;;8.82;0.90;;;8.00;99.90;;;;;;4928466;29;20027;-94
2022/01/11 05:40:13;;;;;;;3.85;1.20;;;8.00;99.90;;;;;;4927145;29;20078;-96
2022/01/11 05:42:40;;;;;;;10.23;1.30;;;7.90;99.90;;;;;;4928651;29;20036;-94
2022/01/11 05:45:07;;;;;;;6.85;1.02;;;7.90;99.90;;;;;;4925392;29;20034;-94
2022/01/11 05:47:34;;;;;;;9.18;1.42;;;7.90;99.90;;;;;;4925291;29;20122;-93
2022/01/11 05:50:01;;;;;;;4.07;1.30;;;7.80;99.90;;;;;;4925736;29;20027;-95
2022/01/11 05:52:28;;;;;;;8.68;1.60;;;7.80;99.90;;;;;;4928486;29;20023;-94
2022/01/11 05:54:54;;;;;;;7.45;1.50;;;7.80;99.90;;;;;;4929694;29;20039;-95
2022/01/11 05:57:22;;;;;;;10.02;1.60;;;7.80;99.90;;;;;;4928198;29;20023;-94
2022/01/11 05:59:48;;;;;;;5.72;1.30;;;7.80;99.90;;;;;;4928386;29;20031;-93
2022/01/11 06:02:14;;;;;;;9.93;1.77;;;7.80;99.90;;;;;;4926959;29;20055;-95
2022/01/11 06:04:40;;;;;;;6.55;1.73;;;7.80;99.90;;;;;;4926167;29;20062;-94
2022/01/11 06:07:06;;;;;;;3.80;1.20;;;7.80;99.90;;;;;;4923692;29;20063;-94
2022/01/11 06:09:32;;;;;;;6.55;1.17;;;7.80;99.90;;;;;;4924280;29;20028;-95
2022/01/11 06:11:58;;;;;;;4.50;1.33;;;7.70;99.90;;;;;;4923972;29;20047;-94
2022/01/11 06:14:24;;;;;;;6.65;1.27;;;7.70;99.90;;;;;;4924343;29;20076;-95
2022/01/11 06:16:50;;;;;;;6.40;1.40;;;7.80;99.90;;;;;;4924455;29;20486;-93
2022/01/11 06:19:16;;;;;;;8.20;2.38;;;7.70;99.90;;;;;;4923920;29;20039;-94
2022/01/11 06:21:43;;;;;;;6.18;1.92;;;7.70;99.90;;;;;;4926601;29;20047;-93
2022/01/11 06:24:08;;;;;;;5.90;1.63;;;7.70;99.90;;;;;;4924951;29;20023;-95
2022/01/11 06:26:34;;;;;;;3.55;1.20;;;7.70;99.90;;;;;;4924718;29;20030;-94
2022/01/11 06:29:02;;;;;;;11.07;2.03;;;7.70;99.90;;;;;;4924459;29;20028;-94
2022/01/11 06:31:28;;;;;;;6.40;1.80;;;7.60;99.90;;;;;;4924149;29;20617;-94
2022/01/11 06:33:54;;;;;;;6.32;1.80;;;7.70;99.90;;;;;;4923640;29;20055;-95
2022/01/11 06:36:20;;;;;;;4.38;1.10;;;7.70;99.90;;;;;;4924141;29;20043;-93
2022/01/11 06:38:46;;;;;;;6.10;1.35;;;7.60;99.90;;;;;;4923910;29;20031;-93
2022/01/11 06:41:12;;;;;;;3.97;1.20;;;7.60;99.90;;;;;;4924886;29;20024;-94
2022/01/11 06:43:39;;;;;;;9.48;1.50;;;7.60;99.90;;;;;;4924389;29;20038;-94
2022/01/11 06:46:05;;;;;;;6.22;1.83;;;7.60;99.90;;;;;;4925463;29;20473;-95
2022/01/11 06:48:35;;;;;;;5.60;1.88;;;7.50;99.90;;;;;;4927989;29;20028;-94
2022/01/11 06:51:02;;;;;;;4.80;1.42;;;7.60;99.90;;;;;;4933170;29;20027;-96
2022/01/11 06:53:32;;;;;;;5.63;1.42;;;7.60;99.90;;;;;;4931880;29;20038;-94
2022/01/11 06:55:59;;;;;;;3.88;1.48;;;7.60;99.90;;;;;;4937472;29;20031;-94
2022/01/11 06:58:25;;;;;;;5.35;1.50;;;7.50;99.90;;;;;;4934312;29;20047;-94
2022/01/11 07:00:51;;;;;;;8.55;2.03;;;7.50;99.90;;;;;;4933623;29;20023;-94
2022/01/11 07:03:18;;;;;;;5.82;1.73;;;7.50;99.90;;;;;;4936686;29;20494;-94
2022/01/11 07:05:45;;;;;;;1.98;1.00;;;7.50;99.90;;;;;;4944826;29;20027;-94
2022/01/11 07:08:11;;;;;;;4.18;1.60;;;7.50;99.90;;;;;;4941944;29;20465;-96
2022/01/11 07:10:38;;;;;;;10.50;1.98;;;7.50;99.90;;;;;;4949369;29;20024;-94
2022/01/11 07:13:04;;;;;;;8.60;2.45;;;7.40;99.90;;;;;;4943466;29;20027;-95
2022/01/11 07:15:31;;;;;;;5.88;1.40;;;7.50;99.90;;;;;;4951511;29;20023;-94
2022/01/11 07:17:57;;;;;;;10.85;1.85;;;7.50;99.90;;;;;;4947138;29;20019;-94
2022/01/11 07:20:24;;;;;;;3.30;1.08;;;7.40;99.90;;;;;;4953245;29;20023;-94
2022/01/11 07:22:51;;;;;;;3.45;1.60;;;7.50;99.90;;;;;;4944090;29;20031;-95
2022/01/11 07:25:17;;;;;;;9.00;2.58;;;7.40;99.90;;;;;;4944738;29;20449;-95
2022/01/11 07:27:43;;;;;;;11.25;2.10;;;7.40;99.90;;;;;;4944081;29;20062;-93
2022/01/11 07:30:10;;;;;;;10.68;3.00;;;7.40;99.90;;;;;;4945055;29;20038;-95
2022/01/11 07:32:41;;;;;;;12.80;2.58;;;7.40;99.90;;;;;;4945099;29;20024;-94
2022/01/11 07:35:09;;;;;;;10.23;1.95;;;7.40;99.90;;;;;;4944942;29;20019;-94
2022/01/11 07:37:34;;;;;;;6.63;1.50;;;7.40;99.90;;;;;;4947557;29;20027;-94
2022/01/11 07:40:00;;;;;;;11.35;2.90;;;7.40;99.90;;;;;;4943812;29;20476;-96
2022/01/11 07:42:26;;;;;;;6.28;2.00;;;7.40;99.90;;;;;;4944323;29;20047;-95
2022/01/11 07:44:54;;;;;;;16.55;3.65;;;7.40;99.90;;;;;;4958518;28;20390;-96
2022/01/11 07:47:20;;;;;;;9.32;2.67;;;7.40;99.90;;;;;;4946266;29;20027;-94
2022/01/11 07:49:47;;;;;;;12.48;3.92;;;7.40;99.90;;;;;;4943683;29;20035;-94
2022/01/11 07:52:14;;;;;;;7.72;2.45;;;7.40;99.90;;;;;;4935222;29;20027;-94
2022/01/11 07:54:40;;;;;;;10.00;2.83;;;7.40;99.90;;;;;;4935331;29;20113;-95
2022/01/11 07:57:19;;;;;;;12.05;3.05;;;7.30;99.90;;;;;;4945243;29;20028;-95
2022/01/11 07:59:45;;;;;;;11.23;2.38;;;7.30;99.90;;;;;;4946922;29;20028;-94
2022/01/11 08:02:23;;;;;;;11.43;2.78;;;7.30;99.90;;;;;;4942489;29;20049;-94
2022/01/11 08:04:53;;;;;;;8.80;2.95;;;7.30;99.90;;;;;;4918659;29;20040;-93
2022/01/11 08:07:19;;;;;;;16.95;3.15;;;7.40;99.90;;;;;;4922164;29;20032;-95
2022/01/11 08:09:46;;;;;;;11.43;3.30;;;7.40;99.90;;;;;;4924895;29;20063;-94
2022/01/11 08:12:20;;;;;;;12.88;3.70;;;7.40;99.90;;;;;;4923137;29;20036;-96
2022/01/11 08:14:48;;;;;;;15.90;3.65;;;7.40;99.90;;;;;;4920732;29;20035;-94
2022/01/11 08:17:16;;;;;;;10.18;3.50;;;7.40;99.90;;;;;;4949254;29;20063;-95
2022/01/11 08:19:46;;;;;;;14.20;4.60;;;7.40;99.90;;;;;;4910186;29;20568;-95
2022/01/11 08:22:12;;;;;;;20.37;4.67;;;7.40;99.90;;;;;;4923379;29;20036;-94
2022/01/11 08:24:41;;;;;;;17.60;4.50;;;7.40;99.90;;;;;;4940875;29;20036;-95
2022/01/11 08:27:07;;;;;;;18.85;4.20;;;7.40;99.90;;;;;;4923096;29;20044;-94
2022/01/11 08:29:33;;;;;;;17.77;5.47;;;7.40;99.90;;;;;;4927037;29;20032;-93
2022/01/11 08:31:59;;;;;;;15.00;4.97;;;7.40;99.90;;;;;;4925830;29;20016;-95
2022/01/11 08:34:25;;;;;;;20.38;4.47;;;7.40;99.90;;;;;;4933812;29;20040;-95
2022/01/11 08:36:53;;;;;;;20.17;5.28;;;7.40;99.90;;;;;;4941571;29;20047;-95
2022/01/11 08:39:19;;;;;;;29.45;7.13;;;7.40;99.90;;;;;;4942418;29;20062;-95
2022/01/11 08:41:45;;;;;;;22.33;5.50;;;7.40;99.90;;;;;;4944906;29;20095;-95
2022/01/11 08:44:11;;;;;;;18.20;5.10;;;7.40;99.90;;;;;;4944220;29;20063;-95
2022/01/11 08:46:40;;;;;;;19.05;4.70;;;7.40;99.90;;;;;;4954130;29;20035;-95
2022/01/11 08:49:06;;;;;;;21.27;5.65;;;7.40;99.90;;;;;;4951901;29;20099;-93
2022/01/11 08:51:32;;;;;;;23.17;5.32;;;7.40;99.90;;;;;;4959040;29;20020;-94
2022/01/11 08:53:58;;;;;;;21.88;5.63;;;7.40;99.90;;;;;;4949058;29;20091;-93
2022/01/11 08:56:23;;;;;;;19.83;5.30;;;7.40;99.90;;;;;;4944167;29;20028;-95
2022/01/11 08:58:49;;;;;;;28.65;5.60;;;7.40;99.90;;;;;;4934786;29;20046;-95
2022/01/11 09:01:18;;;;;;;23.23;5.72;;;7.40;99.90;;;;;;4962709;29;20104;-93
2022/01/11 09:03:44;;;;;;;21.33;5.03;;;7.40;99.90;;;;;;4959317;28;20515;-93
2022/01/11 09:06:10;;;;;;;26.65;6.43;;;7.40;99.90;;;;;;4950281;29;20023;-95
2022/01/11 09:08:37;;;;;;;26.98;6.20;;;7.30;99.90;;;;;;4949375;29;20042;-94
2022/01/11 09:11:06;;;;;;;31.25;6.05;;;7.30;99.90;;;;;;4947966;29;20031;-95
2022/01/11 09:13:34;;;;;;;30.20;6.00;;;7.30;99.90;;;;;;4946370;29;20035;-93
2022/01/11 09:16:01;;;;;;;27.60;5.90;;;7.30;99.90;;;;;;4944409;29;20023;-93
2022/01/11 09:18:30;;;;;;;29.50;6.28;;;7.30;99.90;;;;;;4944717;29;20170;-92
2022/01/11 09:21:00;;;;;;;37.72;7.93;;;7.30;99.90;;;;;;4944574;29;20031;-93
2022/01/11 09:23:30;;;;;;;31.08;7.47;;;7.30;99.90;;;;;;4944829;29;20039;-93
2022/01/11 09:25:56;;;;;;;25.70;6.65;;;7.30;99.90;;;;;;4945148;29;20472;-94
2022/01/11 09:28:22;;;;;;;24.95;6.95;;;7.30;99.90;;;;;;4944952;29;20116;-94
2022/01/11 09:30:50;;;;;;;21.92;5.95;;;7.30;99.90;;;;;;4947797;29;20027;-95
2022/01/11 09:33:19;;;;;;;22.80;7.60;;;7.30;99.90;;;;;;4952332;29;20448;-95
2022/01/11 09:35:45;;;;;;;24.05;6.07;;;7.30;99.90;;;;;;4951755;29;20019;-94
2022/01/11 09:38:11;;;;;;;25.88;6.05;;;7.30;99.90;;;;;;4947147;29;20027;-94
2022/01/11 09:40:37;;;;;;;22.83;5.95;;;7.30;99.90;;;;;;4946445;29;20532;-95
2022/01/11 09:43:04;;;;;;;25.20;6.22;;;7.30;99.90;;;;;;4946698;29;20077;-94
2022/01/11 09:45:29;;;;;;;28.27;6.07;;;7.30;99.90;;;;;;4946073;29;20046;-93
2022/01/11 09:47:55;;;;;;;26.33;6.55;;;7.30;99.90;;;;;;4944865;29;20501;-93
2022/01/11 09:50:21;;;;;;;32.03;6.57;;;7.20;99.90;;;;;;4944166;29;20031;-93
2022/01/11 09:52:47;;;;;;;28.98;6.32;;;7.30;99.90;;;;;;4944965;29;20388;-94
2022/01/11 09:55:14;;;;;;;28.52;6.05;;;7.30;99.90;;;;;;4937664;29;20035;-94
2022/01/11 09:57:41;;;;;;;20.65;5.75;;;7.30;99.90;;;;;;4964394;28;20039;-93
2022/01/11 10:00:11;;;;;;;20.65;6.05;;;7.30;99.90;;;;;;4933849;29;20031;-94
2022/01/11 10:02:38;;;;;;;22.58;5.88;;;7.30;99.90;;;;;;4948085;29;20036;-95
2022/01/11 10:05:08;;;;;;;23.15;5.90;;;7.30;99.90;;;;;;4929001;29;20019;-93
2022/01/11 10:07:40;;;;;;;27.67;6.03;;;7.30;99.90;;;;;;4939908;29;20031;-94
2022/01/11 10:10:29;;;;;;;20.90;5.68;;;7.30;99.90;;;;;;4941714;29;20058;-94
2022/01/11 10:13:03;;;;;;;22.90;6.32;;;7.40;99.90;;;;;;4939331;29;20039;-94
2022/01/11 10:15:39;;;;;;;26.45;5.50;;;7.30;99.90;;;;;;4925747;29;20059;-95
2022/01/11 10:18:47;;;;;;;28.15;6.65;;;7.40;99.90;;;;;;4938234;29;20043;-95
2022/01/11 10:21:54;;;;;;;21.20;5.68;;;7.30;99.90;;;;;;4937560;29;20063;-96
2022/01/11 10:24:43;;;;;;;27.73;6.43;;;7.40;99.90;;;;;;4948296;29;20044;-95
2022/01/11 10:27:28;;;;;;;21.73;6.05;;;7.40;99.90;;;;;;4929464;29;20028;-95
2022/01/11 10:30:21;;;;;;;21.75;6.18;;;7.40;99.90;;;;;;4919881;29;20035;-95
2022/01/11 10:32:49;;;;;;;28.63;6.45;;;7.40;99.90;;;;;;4923363;29;20051;-94
2022/01/11 10:35:23;;;;;;;31.60;6.80;;;7.50;99.90;;;;;;4916668;29;20694;-94
2022/01/11 10:37:59;;;;;;;17.65;5.85;;;7.40;99.90;;;;;;4913550;29;20019;-96
2022/01/11 10:40:27;;;;;;;21.23;6.93;;;7.50;99.90;;;;;;4919978;29;20075;-94
2022/01/11 10:42:57;;;;;;;30.23;6.53;;;7.50;99.90;;;;;;4923293;29;20051;-95
2022/01/11 11:19:04;;;;;;;27.25;6.60;;;7.90;99.90;;;;;;5468190;23;20477;-93
2022/01/11 11:21:32;;;;;;;42.05;7.82;;;8.00;99.90;;;;;;4948085;28;20113;-93
2022/01/11 11:23:58;;;;;;;37.10;6.53;;;8.00;99.90;;;;;;4947435;28;20058;-90
2022/01/11 11:26:53;;;;;;;26.33;5.75;;;8.00;99.90;;;;;;4948172;28;20420;-92
2022/01/11 11:29:26;;;;;;;31.33;6.80;;;8.10;99.90;;;;;;4951501;28;20030;-95
2022/01/11 11:31:53;;;;;;;27.50;5.88;;;8.10;99.90;;;;;;4952213;28;20059;-92
2022/01/11 11:34:22;;;;;;;20.42;7.07;;;8.10;99.90;;;;;;4948349;28;20019;-94
2022/01/11 11:36:52;;;;;;;27.70;6.72;;;8.20;99.90;;;;;;4951701;28;20031;-92
2022/01/11 11:39:28;;;;;;;28.90;6.22;;;8.20;99.90;;;;;;4949637;28;20031;-94
2022/01/11 11:41:56;;;;;;;28.83;6.53;;;8.30;99.90;;;;;;4947810;28;20035;-93
2022/01/11 11:44:29;;;;;;;28.50;6.18;;;8.30;99.90;;;;;;4955841;28;20026;-93
2022/01/11 11:47:05;;;;;;;26.70;5.72;;;8.40;99.90;;;;;;4950869;28;20026;-91
2022/01/11 11:49:46;;;;;;;20.85;4.53;;;8.40;99.90;;;;;;4961412;28;20025;-93
2022/01/11 11:52:19;;;;;;;24.35;4.97;;;8.50;99.90;;;;;;4972133;28;20066;-93
2022/01/11 11:54:54;;;;;;;32.50;4.93;;;8.50;99.90;;;;;;4976957;28;20046;-92
2022/01/11 11:57:25;;;;;;;23.65;5.65;;;8.50;99.90;;;;;;4972239;28;20026;-93
2022/01/11 12:00:03;;;;;;;23.02;4.68;;;8.60;99.90;;;;;;4969654;28;20014;-92
2022/01/11 12:02:42;;;;;;;24.73;5.07;;;8.60;99.90;;;;;;4969627;28;20034;-94
2022/01/11 12:05:15;;;;;;;21.90;4.55;;;8.60;99.90;;;;;;4969685;28;20099;-92
2022/01/11 12:07:46;;;;;;;25.30;4.28;;;8.60;99.90;;;;;;4970038;28;20026;-93
2022/01/11 12:10:26;;;;;;;28.02;4.38;;;8.60;99.90;;;;;;4968873;28;20058;-93
2022/01/11 12:12:54;;;;;;;19.08;4.20;;;8.60;99.90;;;;;;4977702;28;20090;-94
2022/01/11 12:15:41;;;;;;;25.63;4.30;;;8.60;99.90;;;;;;4976176;28;20031;-93
2022/01/11 12:18:07;;;;;;;25.25;4.03;;;8.60;99.90;;;;;;4975568;28;20030;-94
2022/01/11 12:20:42;;;;;;;19.05;4.00;;;8.60;99.90;;;;;;4975667;28;20094;-92
2022/01/11 12:23:37;;;;;;;21.85;4.65;;;8.70;99.90;;;;;;4973281;28;20058;-92
2022/01/11 12:26:16;;;;;;;22.05;4.20;;;8.60;99.90;;;;;;4955614;28;20030;-93
2022/01/11 12:28:43;;;;;;;23.58;4.38;;;8.70;99.90;;;;;;4971963;28;20023;-93
2022/01/11 12:31:32;;;;;;;19.60;3.88;;;8.70;99.90;;;;;;4969808;28;20480;-93
2022/01/11 12:33:58;;;;;;;21.42;4.40;;;8.70;99.90;;;;;;4969626;28;20049;-93
2022/01/11 12:37:11;;;;;;;14.85;3.42;;;8.70;99.90;;;;;;4969045;28;20400;-91
2022/01/11 12:40:09;;;;;;;29.13;4.05;;;8.70;99.90;;;;;;4986792;28;20591;-94
2022/01/11 12:42:36;;;;;;;23.75;4.10;;;8.60;99.90;;;;;;4968651;28;20491;-93
2022/01/11 12:47:44;;;;;;;19.63;3.45;;;8.60;99.90;;;;;;4986367;28;20023;-94
2022/01/11 12:50:14;;;;;;;;;;;8.50;99.90;;;;;;4968683;28;20030;-93
2022/01/11 12:52:40;;;;;;;25.38;4.85;;;8.50;99.90;;;;;;4967380;28;19906;-93
2022/01/11 12:55:08;;;;;;;19.63;4.15;;;8.40;99.90;;;;;;4968558;28;20557;-93
2022/01/11 12:57:34;;;;;;;26.15;5.05;;;8.40;99.90;;;;;;4968347;28;20118;-93
2022/01/11 13:00:12;;;;;;;28.40;5.53;;;8.40;99.90;;;;;;4968683;28;20122;-93
2022/01/11 13:02:39;;;;;;;20.83;5.50;;;8.30;99.90;;;;;;4965358;28;20030;-93
2022/01/11 13:05:12;;;;;;;34.25;9.38;;;8.40;99.90;;;;;;4967578;28;20077;-94
2022/01/11 13:07:49;;;;;;;31.10;8.65;;;8.40;99.90;;;;;;4967364;28;20031;-95
2022/01/11 13:10:16;;;;;;;22.40;6.38;;;8.50;99.90;;;;;;4970363;28;20018;-94
2022/01/11 13:13:21;;;;;;;53.08;16.75;;;8.50;99.90;;;;;;4968483;28;20494;-93
2022/01/11 13:16:03;;;;;;;46.35;12.65;;;8.60;99.90;;;;;;4968525;28;20113;-93
2022/01/11 13:18:32;;;;;;;63.65;17.38;;;8.60;99.90;;;;;;4939777;29;20544;-93
2022/01/11 13:21:04;;;;;;;35.83;9.32;;;8.70;99.90;;;;;;4944967;29;20078;-93
2022/01/11 13:23:46;;;;;;;39.33;8.63;;;8.70;99.90;;;;;;4947704;29;20055;-95
2022/01/11 13:26:19;;;;;;;16.58;4.20;;;8.70;99.90;;;;;;4946271;29;20079;-94
2022/01/11 13:28:49;;;;;;;22.35;4.72;;;8.80;99.90;;;;;;4946013;29;20042;-94
2022/01/11 13:31:22;;;;;;;23.38;4.78;;;8.80;99.90;;;;;;4946546;29;20062;-93
2022/01/11 13:33:55;;;;;;;23.17;5.50;;;8.90;99.90;;;;;;4945201;29;20031;-93
2022/01/11 13:36:33;;;;;;;31.08;6.90;;;8.90;99.90;;;;;;4938374;29;20113;-92
2022/01/11 13:39:05;;;;;;;20.85;5.30;;;8.90;99.90;;;;;;4937833;29;20032;-92
2022/01/11 13:41:42;;;;;;;23.13;6.43;;;8.90;99.90;;;;;;4937394;29;20481;-94
2022/01/11 13:44:15;;;;;;;24.90;5.75;;;8.90;99.90;;;;;;4937710;29;20040;-93
2022/01/11 13:46:47;;;;;;;29.20;6.50;;;9.00;99.90;;;;;;4937532;29;20048;-94